sensor_id;sensor_type;location;lat;lon;timestamp;temperature;humidity
3300;DHT22;1662;49.310;8.134;2022-12-04T00:03:11;3.60;99.90
3300;DHT22;1662;49.310;8.134;2022-12-04T00:05:37;3.60;99.90
3300;DHT22;1662;49.310;8.134;2022-12-04T00:08:05;3.60;99.90
3300;DHT22;1662;49.310;8.134;2022-12-04T00:10:30;3.60;99.90
3300;DHT22;1662;49.310;8.134;2022-12-04T00:12:56;3.60;99.90
3300;DHT22;1662;49.310;8.134;2022-12-04T00:15:23;3.60;99.90
3300;DHT22;1662;49.310;8.134;2022-12-04T00:17:48;3.60;99.90
3300;DHT22;1662;49.310;8.134;2022-12-04T00:23:07;3.60;99.90
3300;DHT22;1662;49.310;8.134;2022-12-04T00:25:32;3.60;99.90
3300;DHT22;1662;49.310;8.134;2022-12-04T00:28:00;3.60;99.90
3300;DHT22;1662;49.310;8.134;2022-12-04T00:30:25;3.60;99.90
3300;DHT22;1662;49.310;8.134;2022-12-04T00:32:51;3.50;99.90
3300;DHT22;1662;49.310;8.134;2022-12-04T00:35:19;3.50;99.90
3300;DHT22;1662;49.310;8.134;2022-12-04T00:40:18;3.50;99.90
3300;DHT22;1662;49.310;8.134;2022-12-04T00:42:43;3.50;99.90
3300;DHT22;1662;49.310;8.134;2022-12-04T00:45:09;3.50;99.90
3300;DHT22;1662;49.310;8.134;2022-12-04T00:47:35;3.60;99.90
3300;DHT22;1662;49.310;8.134;2022-12-04T00:50:01;3.50;99.90
3300;DHT22;1662;49.310;8.134;2022-12-04T00:52:28;3.50;99.90
3300;DHT22;1662;49.310;8.134;2022-12-04T00:54:54;3.50;99.90
3300;DHT22;1662;49.310;8.134;2022-12-04T00:58:59;3.50;99.90
3300;DHT22;1662;49.310;8.134;2022-12-04T01:01:29;3.40;99.90
3300;DHT22;1662;49.310;8.134;2022-12-04T01:03:55;3.40;99.90
3300;DHT22;1662;49.310;8.134;2022-12-04T01:06:28;3.40;99.90
3300;DHT22;1662;49.310;8.134;2022-12-04T01:08:56;3.30;99.90
3300;DHT22;1662;49.310;8.134;2022-12-04T01:11:22;3.30;99.90
3300;DHT22;1662;49.310;8.134;2022-12-04T01:13:51;3.30;99.90
3300;DHT22;1662;49.310;8.134;2022-12-04T01:17:26;3.20;99.90
3300;DHT22;1662;49.310;8.134;2022-12-04T01:19:52;3.20;99.90
3300;DHT22;1662;49.310;8.134;2022-12-04T01:22:20;3.20;99.90
3300;DHT22;1662;49.310;8.134;2022-12-04T01:24:46;3.20;99.90
3300;DHT22;1662;49.310;8.134;2022-12-04T01:27:14;3.20;99.90
3300;DHT22;1662;49.310;8.134;2022-12-04T01:29:39;3.30;99.90
3300;DHT22;1662;49.310;8.134;2022-12-04T01:32:05;3.20;99.90
3300;DHT22;1662;49.310;8.134;2022-12-04T01:37:09;3.20;99.90
3300;DHT22;1662;49.310;8.134;2022-12-04T01:39:36;3.10;99.90
3300;DHT22;1662;49.310;8.134;2022-12-04T01:42:02;3.20;99.90
3300;DHT22;1662;49.310;8.134;2022-12-04T01:44:31;3.20;99.90
3300;DHT22;1662;49.310;8.134;2022-12-04T01:46:59;3.20;99.90
3300;DHT22;1662;49.310;8.134;2022-12-04T01:49:36;3.20;99.90
3300;DHT22;1662;49.310;8.134;2022-12-04T01:52:15;3.10;99.90
3300;DHT22;1662;49.310;8.134;2022-12-04T01:56:43;3.10;99.90
3300;DHT22;1662;49.310;8.134;2022-12-04T01:59:11;3.20;99.90
3300;DHT22;1662;49.310;8.134;2022-12-04T02:01:51;3.10;99.90
3300;DHT22;1662;49.310;8.134;2022-12-04T02:04:20;3.10;99.90
3300;DHT22;1662;49.310;8.134;2022-12-04T02:06:45;3.00;99.90
3300;DHT22;1662;49.310;8.134;2022-12-04T02:09:11;3.10;99.90
3300;DHT22;1662;49.310;8.134;2022-12-04T02:11:45;3.00;99.90
3300;DHT22;1662;49.310;8.134;2022-12-04T02:15:53;3.00;99.90
3300;DHT22;1662;49.310;8.134;2022-12-04T02:30:10;3.00;99.90
3300;DHT22;1662;49.310;8.134;2022-12-04T02:33:56;3.10;99.90
3300;DHT22;1662;49.310;8.134;2022-12-04T02:36:29;3.10;99.90
3300;DHT22;1662;49.310;8.134;2022-12-04T02:39:35;3.00;99.90
3300;DHT22;1662;49.310;8.134;2022-12-04T02:42:15;3.00;99.90
3300;DHT22;1662;49.310;8.134;2022-12-04T02:44:47;3.10;99.90
3300;DHT22;1662;49.310;8.134;2022-12-04T02:47:18;3.00;99.90
3300;DHT22;1662;49.310;8.134;2022-12-04T02:50:00;3.00;99.90
3300;DHT22;1662;49.310;8.134;2022-12-04T02:53:30;2.90;99.90
3300;DHT22;1662;49.310;8.134;2022-12-04T02:56:01;3.00;99.90
3300;DHT22;1662;49.310;8.134;2022-12-04T02:58:33;2.90;99.90
3300;DHT22;1662;49.310;8.134;2022-12-04T03:01:04;2.90;99.90
3300;DHT22;1662;49.310;8.134;2022-12-04T03:03:42;2.90;99.90
3300;DHT22;1662;49.310;8.134;2022-12-04T03:06:11;2.90;99.90
3300;DHT22;1662;49.310;8.134;2022-12-04T03:08:42;2.90;99.90
3300;DHT22;1662;49.310;8.134;2022-12-04T03:12:13;2.90;99.90
3300;DHT22;1662;49.310;8.134;2022-12-04T03:14:56;2.90;99.90
3300;DHT22;1662;49.310;8.134;2022-12-04T03:17:32;3.00;99.90
3300;DHT22;1662;49.310;8.134;2022-12-04T03:20:02;3.00;99.90
3300;DHT22;1662;49.310;8.134;2022-12-04T03:22:36;3.00;99.90
3300;DHT22;1662;49.310;8.134;2022-12-04T03:25:04;3.00;99.90
3300;DHT22;1662;49.310;8.134;2022-12-04T03:30:32;3.00;99.90
3300;DHT22;1662;49.310;8.134;2022-12-04T03:33:16;3.00;99.90
3300;DHT22;1662;49.310;8.134;2022-12-04T03:36:09;3.00;99.90
3300;DHT22;1662;49.310;8.134;2022-12-04T03:41:32;3.00;99.90
3300;DHT22;1662;49.310;8.134;2022-12-04T03:44:16;3.00;99.90
3300;DHT22;1662;49.310;8.134;2022-12-04T03:47:00;3.00;99.90
3300;DHT22;1662;49.310;8.134;2022-12-04T03:50:44;3.00;99.90
3300;DHT22;1662;49.310;8.134;2022-12-04T03:53:40;3.00;99.90
3300;DHT22;1662;49.310;8.134;2022-12-04T03:56:17;3.10;99.90
3300;DHT22;1662;49.310;8.134;2022-12-04T03:58:46;3.00;99.90
3300;DHT22;1662;49.310;8.134;2022-12-04T04:01:16;3.00;99.90
3300;DHT22;1662;49.310;8.134;2022-12-04T04:03:49;3.00;99.90
3300;DHT22;1662;49.310;8.134;2022-12-04T04:06:33;3.10;99.90
3300;DHT22;1662;49.310;8.134;2022-12-04T04:11:27;3.00;99.90
3300;DHT22;1662;49.310;8.134;2022-12-04T04:14:07;3.10;99.90
3300;DHT22;1662;49.310;8.134;2022-12-04T04:17:02;3.10;99.90
3300;DHT22;1662;49.310;8.134;2022-12-04T04:19:53;3.20;99.90
3300;DHT22;1662;49.310;8.134;2022-12-04T04:22:39;3.20;99.90
3300;DHT22;1662;49.310;8.134;2022-12-04T04:25:25;3.20;99.90
3300;DHT22;1662;49.310;8.134;2022-12-04T04:30:26;3.10;99.90
3300;DHT22;1662;49.310;8.134;2022-12-04T04:33:09;3.10;99.90
3300;DHT22;1662;49.310;8.134;2022-12-04T04:35:47;3.10;99.90
3300;DHT22;1662;49.310;8.134;2022-12-04T04:38:23;3.00;99.90
3300;DHT22;1662;49.310;8.134;2022-12-04T04:43:48;3.10;99.90
3300;DHT22;1662;49.310;8.134;2022-12-04T04:46:24;3.00;99.90
3300;DHT22;1662;49.310;8.134;2022-12-04T04:50:09;3.00;99.90
3300;DHT22;1662;49.310;8.134;2022-12-04T04:52:38;3.20;99.90
3300;DHT22;1662;49.310;8.134;2022-12-04T04:55:05;3.10;99.90
3300;DHT22;1662;49.310;8.134;2022-12-04T04:57:33;3.10;99.90
3300;DHT22;1662;49.310;8.134;2022-12-04T05:00:01;3.10;99.90
3300;DHT22;1662;49.310;8.134;2022-12-04T05:02:28;3.10;99.90
3300;DHT22;1662;49.310;8.134;2022-12-04T05:04:54;3.10;99.90
3300;DHT22;1662;49.310;8.134;2022-12-04T05:09:20;3.20;99.90
3300;DHT22;1662;49.310;8.134;2022-12-04T05:11:46;3.10;99.90
3300;DHT22;1662;49.310;8.134;2022-12-04T05:14:11;3.10;99.90
3300;DHT22;1662;49.310;8.134;2022-12-04T05:16:38;3.20;99.90
3300;DHT22;1662;49.310;8.134;2022-12-04T05:19:04;3.10;99.90
3300;DHT22;1662;49.310;8.134;2022-12-04T05:22:02;3.10;99.90
3300;DHT22;1662;49.310;8.134;2022-12-04T05:24:28;3.20;99.90
3300;DHT22;1662;49.310;8.134;2022-12-04T05:28:49;3.20;99.90
3300;DHT22;1662;49.310;8.134;2022-12-04T05:31:14;3.20;99.90
3300;DHT22;1662;49.310;8.134;2022-12-04T05:33:40;3.10;99.90
3300;DHT22;1662;49.310;8.134;2022-12-04T05:36:07;3.10;99.90
3300;DHT22;1662;49.310;8.134;2022-12-04T05:38:35;3.10;99.90
3300;DHT22;1662;49.310;8.134;2022-12-04T05:41:02;3.10;99.90
3300;DHT22;1662;49.310;8.134;2022-12-04T05:43:28;3.10;99.90
3300;DHT22;1662;49.310;8.134;2022-12-04T05:48:17;3.10;99.90
3300;DHT22;1662;49.310;8.134;2022-12-04T05:50:43;3.10;99.90
3300;DHT22;1662;49.310;8.134;2022-12-04T05:53:08;3.00;99.90
3300;DHT22;1662;49.310;8.134;2022-12-04T05:55:37;3.00;99.90
3300;DHT22;1662;49.310;8.134;2022-12-04T05:58:03;3.00;99.90
3300;DHT22;1662;49.310;8.134;2022-12-04T06:00:29;3.00;99.90
3300;DHT22;1662;49.310;8.134;2022-12-04T06:02:54;3.10;99.90
3300;DHT22;1662;49.310;8.134;2022-12-04T06:05:20;3.10;99.90
3300;DHT22;1662;49.310;8.134;2022-12-04T06:08:59;3.10;99.90
3300;DHT22;1662;49.310;8.134;2022-12-04T06:11:28;3.10;99.90
3300;DHT22;1662;49.310;8.134;2022-12-04T06:13:54;3.10;99.90
3300;DHT22;1662;49.310;8.134;2022-12-04T06:16:27;3.10;99.90
3300;DHT22;1662;49.310;8.134;2022-12-04T06:19:04;3.10;99.90
3300;DHT22;1662;49.310;8.134;2022-12-04T06:21:31;3.10;99.90
3300;DHT22;1662;49.310;8.134;2022-12-04T06:23:57;3.00;99.90
3300;DHT22;1662;49.310;8.134;2022-12-04T06:28:41;3.10;99.90
3300;DHT22;1662;49.310;8.134;2022-12-04T06:31:09;3.00;99.90
3300;DHT22;1662;49.310;8.134;2022-12-04T06:33:37;3.00;99.90
3300;DHT22;1662;49.310;8.134;2022-12-04T06:36:06;3.00;99.90
3300;DHT22;1662;49.310;8.134;2022-12-04T06:38:33;3.00;99.90
3300;DHT22;1662;49.310;8.134;2022-12-04T06:41:04;3.00;99.90
3300;DHT22;1662;49.310;8.134;2022-12-04T06:43:30;3.00;99.90
3300;DHT22;1662;49.310;8.134;2022-12-04T06:51:00;3.00;99.90
3300;DHT22;1662;49.310;8.134;2022-12-04T06:53:30;3.10;99.90
3300;DHT22;1662;49.310;8.134;2022-12-04T06:56:01;3.10;99.90
3300;DHT22;1662;49.310;8.134;2022-12-04T06:58:27;3.00;99.90
3300;DHT22;1662;49.310;8.134;2022-12-04T07:00:54;2.80;99.90
3300;DHT22;1662;49.310;8.134;2022-12-04T07:03:20;3.00;99.90
3300;DHT22;1662;49.310;8.134;2022-12-04T07:05:49;3.00;99.90
3300;DHT22;1662;49.310;8.134;2022-12-04T07:10:04;3.10;99.90
3300;DHT22;1662;49.310;8.134;2022-12-04T07:12:30;3.10;99.90
3300;DHT22;1662;49.310;8.134;2022-12-04T07:14:55;3.10;99.90
3300;DHT22;1662;49.310;8.134;2022-12-04T07:17:21;3.10;99.90
3300;DHT22;1662;49.310;8.134;2022-12-04T07:19:49;3.10;99.90
3300;DHT22;1662;49.310;8.134;2022-12-04T07:22:14;3.10;99.90
3300;DHT22;1662;49.310;8.134;2022-12-04T07:24:40;3.10;99.90
3300;DHT22;1662;49.310;8.134;2022-12-04T07:27:59;3.10;99.90
3300;DHT22;1662;49.310;8.134;2022-12-04T07:30:27;3.10;99.90
3300;DHT22;1662;49.310;8.134;2022-12-04T07:32:52;3.10;99.90
3300;DHT22;1662;49.310;8.134;2022-12-04T07:35:18;3.10;99.90
3300;DHT22;1662;49.310;8.134;2022-12-04T07:37:43;3.10;99.90
3300;DHT22;1662;49.310;8.134;2022-12-04T07:40:10;3.10;99.90
3300;DHT22;1662;49.310;8.134;2022-12-04T07:42:35;3.10;99.90
3300;DHT22;1662;49.310;8.134;2022-12-04T07:45:58;3.10;99.90
3300;DHT22;1662;49.310;8.134;2022-12-04T07:48:23;3.10;99.90
3300;DHT22;1662;49.310;8.134;2022-12-04T07:50:49;3.10;99.90
3300;DHT22;1662;49.310;8.134;2022-12-04T07:53:15;3.20;99.90
3300;DHT22;1662;49.310;8.134;2022-12-04T07:55:43;3.20;99.90
3300;DHT22;1662;49.310;8.134;2022-12-04T07:58:09;3.20;99.90
3300;DHT22;1662;49.310;8.134;2022-12-04T08:00:36;3.20;99.90
3300;DHT22;1662;49.310;8.134;2022-12-04T08:05:38;3.20;99.90
3300;DHT22;1662;49.310;8.134;2022-12-04T08:08:04;3.20;99.90
3300;DHT22;1662;49.310;8.134;2022-12-04T08:10:29;3.30;99.90
3300;DHT22;1662;49.310;8.134;2022-12-04T08:12:55;3.20;99.90
3300;DHT22;1662;49.310;8.134;2022-12-04T08:15:20;3.20;99.90
3300;DHT22;1662;49.310;8.134;2022-12-04T08:17:48;3.30;99.90
3300;DHT22;1662;49.310;8.134;2022-12-04T08:20:14;3.40;99.90
3300;DHT22;1662;49.310;8.134;2022-12-04T08:24:34;3.30;99.90
3300;DHT22;1662;49.310;8.134;2022-12-04T08:27:00;3.40;99.90
3300;DHT22;1662;49.310;8.134;2022-12-04T08:29:28;3.40;99.90
3300;DHT22;1662;49.310;8.134;2022-12-04T08:31:56;3.40;99.90
3300;DHT22;1662;49.310;8.134;2022-12-04T08:34:22;3.40;99.90
3300;DHT22;1662;49.310;8.134;2022-12-04T08:36:48;3.40;99.90
3300;DHT22;1662;49.310;8.134;2022-12-04T08:39:14;3.40;99.90
3300;DHT22;1662;49.310;8.134;2022-12-04T08:44:04;3.40;99.90
3300;DHT22;1662;49.310;8.134;2022-12-04T08:46:29;3.40;99.90
3300;DHT22;1662;49.310;8.134;2022-12-04T08:48:55;3.40;99.90
3300;DHT22;1662;49.310;8.134;2022-12-04T08:51:25;3.30;99.90
3300;DHT22;1662;49.310;8.134;2022-12-04T08:53:58;3.40;99.90
3300;DHT22;1662;49.310;8.134;2022-12-04T08:56:25;3.40;99.90
3300;DHT22;1662;49.310;8.134;2022-12-04T08:58:51;3.40;99.90
3300;DHT22;1662;49.310;8.134;2022-12-04T09:03:33;3.40;99.90
3300;DHT22;1662;49.310;8.134;2022-12-04T09:06:00;3.40;99.90
3300;DHT22;1662;49.310;8.134;2022-12-04T09:08:25;3.40;99.90
3300;DHT22;1662;49.310;8.134;2022-12-04T09:10:51;3.40;99.90
3300;DHT22;1662;49.310;8.134;2022-12-04T09:13:16;3.40;99.90
3300;DHT22;1662;49.310;8.134;2022-12-04T09:15:42;3.40;99.90
3300;DHT22;1662;49.310;8.134;2022-12-04T09:18:08;3.40;99.90
3300;DHT22;1662;49.310;8.134;2022-12-04T09:22:45;3.40;99.90
3300;DHT22;1662;49.310;8.134;2022-12-04T09:25:10;3.50;99.90
3300;DHT22;1662;49.310;8.134;2022-12-04T09:27:37;3.60;99.90
3300;DHT22;1662;49.310;8.134;2022-12-04T09:30:04;3.60;99.90
3300;DHT22;1662;49.310;8.134;2022-12-04T09:32:30;3.70;99.90
3300;DHT22;1662;49.310;8.134;2022-12-04T09:34:56;3.70;99.90
3300;DHT22;1662;49.310;8.134;2022-12-04T09:37:22;3.60;99.90
3300;DHT22;1662;49.310;8.134;2022-12-04T09:44:58;3.60;99.90
3300;DHT22;1662;49.310;8.134;2022-12-04T09:47:43;3.70;99.90
3300;DHT22;1662;49.310;8.134;2022-12-04T09:50:17;3.70;99.90
3300;DHT22;1662;49.310;8.134;2022-12-04T09:55:32;3.70;99.90
3300;DHT22;1662;49.310;8.134;2022-12-04T09:58:03;3.80;99.90
3300;DHT22;1662;49.310;8.134;2022-12-04T10:01:46;3.80;99.90
3300;DHT22;1662;49.310;8.134;2022-12-04T10:04:13;3.70;99.90
3300;DHT22;1662;49.310;8.134;2022-12-04T10:10:06;3.80;99.90
3300;DHT22;1662;49.310;8.134;2022-12-04T10:15:29;3.80;99.90
3300;DHT22;1662;49.310;8.134;2022-12-04T10:21:07;3.80;99.90
3300;DHT22;1662;49.310;8.134;2022-12-04T10:25:52;3.70;99.90
3300;DHT22;1662;49.310;8.134;2022-12-04T10:28:31;3.70;99.90
3300;DHT22;1662;49.310;8.134;2022-12-04T10:31:02;3.70;99.90
3300;DHT22;1662;49.310;8.134;2022-12-04T10:38:46;3.60;99.90
3300;DHT22;1662;49.310;8.134;2022-12-04T10:41:19;3.60;99.90
3300;DHT22;1662;49.310;8.134;2022-12-04T10:43:48;3.50;99.90
3300;DHT22;1662;49.310;8.134;2022-12-04T10:46:20;3.50;99.90
3300;DHT22;1662;49.310;8.134;2022-12-04T10:48:50;3.60;99.90
3300;DHT22;1662;49.310;8.134;2022-12-04T10:51:18;3.50;99.90
3300;DHT22;1662;49.310;8.134;2022-12-04T10:53:45;3.60;99.90
3300;DHT22;1662;49.310;8.134;2022-12-04T10:57:45;3.50;99.90
3300;DHT22;1662;49.310;8.134;2022-12-04T11:00:33;3.50;99.90
3300;DHT22;1662;49.310;8.134;2022-12-04T11:03:01;3.50;99.90
3300;DHT22;1662;49.310;8.134;2022-12-04T11:05:30;3.60;99.90
3300;DHT22;1662;49.310;8.134;2022-12-04T11:08:00;3.60;99.90
3300;DHT22;1662;49.310;8.134;2022-12-04T11:10:37;3.60;99.90
3300;DHT22;1662;49.310;8.134;2022-12-04T11:17:14;3.60;99.90
3300;DHT22;1662;49.310;8.134;2022-12-04T11:19:42;3.70;99.90
3300;DHT22;1662;49.310;8.134;2022-12-04T11:22:17;3.70;99.90
3300;DHT22;1662;49.310;8.134;2022-12-04T11:24:49;3.70;99.90
3300;DHT22;1662;49.310;8.134;2022-12-04T11:27:23;3.70;99.90
3300;DHT22;1662;49.310;8.134;2022-12-04T11:29:50;3.70;99.90
3300;DHT22;1662;49.310;8.134;2022-12-04T11:32:25;3.80;99.90
3300;DHT22;1662;49.310;8.134;2022-12-04T11:37:05;3.80;99.90
3300;DHT22;1662;49.310;8.134;2022-12-04T11:39:44;3.80;99.90
3300;DHT22;1662;49.310;8.134;2022-12-04T11:42:17;3.80;99.90
3300;DHT22;1662;49.310;8.134;2022-12-04T11:44:55;3.80;99.90
3300;DHT22;1662;49.310;8.134;2022-12-04T11:47:23;3.80;99.90
3300;DHT22;1662;49.310;8.134;2022-12-04T11:50:28;3.90;99.90
3300;DHT22;1662;49.310;8.134;2022-12-04T11:53:20;3.90;99.90
3300;DHT22;1662;49.310;8.134;2022-12-04T11:56:38;3.90;99.90
3300;DHT22;1662;49.310;8.134;2022-12-04T11:59:47;3.90;99.90
3300;DHT22;1662;49.310;8.134;2022-12-04T12:02:34;3.90;99.90
3300;DHT22;1662;49.310;8.134;2022-12-04T12:10:44;3.90;99.90
3300;DHT22;1662;49.310;8.134;2022-12-04T12:16:22;4.00;99.90
3300;DHT22;1662;49.310;8.134;2022-12-04T12:19:03;3.90;99.90
3300;DHT22;1662;49.310;8.134;2022-12-04T12:21:38;4.00;99.90
3300;DHT22;1662;49.310;8.134;2022-12-04T12:24:26;4.00;99.90
3300;DHT22;1662;49.310;8.134;2022-12-04T12:27:14;4.00;99.90
3300;DHT22;1662;49.310;8.134;2022-12-04T12:32:20;3.90;99.90
3300;DHT22;1662;49.310;8.134;2022-12-04T12:36:22;3.90;99.90
3300;DHT22;1662;49.310;8.134;2022-12-04T12:39:08;3.80;99.90
3300;DHT22;1662;49.310;8.134;2022-12-04T12:41:41;3.90;99.90
3300;DHT22;1662;49.310;8.134;2022-12-04T12:47:04;3.90;99.90
3300;DHT22;1662;49.310;8.134;2022-12-04T12:49:49;4.00;99.90
3300;DHT22;1662;49.310;8.134;2022-12-04T13:00:42;4.00;99.90
3300;DHT22;1662;49.310;8.134;2022-12-04T13:06:03;4.00;99.90
3300;DHT22;1662;49.310;8.134;2022-12-04T13:13:53;3.90;99.90
3300;DHT22;1662;49.310;8.134;2022-12-04T13:21:35;3.90;99.90
3300;DHT22;1662;49.310;8.134;2022-12-04T13:40:45;4.00;99.90
3300;DHT22;1662;49.310;8.134;2022-12-04T13:46:31;4.00;99.90
3300;DHT22;1662;49.310;8.134;2022-12-04T13:51:38;4.00;99.90
3300;DHT22;1662;49.310;8.134;2022-12-04T13:56:49;3.90;99.90
3300;DHT22;1662;49.310;8.134;2022-12-04T14:01:58;3.90;99.90
3300;DHT22;1662;49.310;8.134;2022-12-04T14:04:43;3.90;99.90
3300;DHT22;1662;49.310;8.134;2022-12-04T14:10:36;4.00;99.90
3300;DHT22;1662;49.310;8.134;2022-12-04T14:13:19;4.00;99.90
3300;DHT22;1662;49.310;8.134;2022-12-04T14:16:05;4.00;99.90
3300;DHT22;1662;49.310;8.134;2022-12-04T14:18:32;3.90;99.90
3300;DHT22;1662;49.310;8.134;2022-12-04T14:21:02;3.90;99.90
3300;DHT22;1662;49.310;8.134;2022-12-04T14:23:37;3.90;99.90
3300;DHT22;1662;49.310;8.134;2022-12-04T14:26:03;3.90;99.90
3300;DHT22;1662;49.310;8.134;2022-12-04T14:33:43;3.80;99.90
3300;DHT22;1662;49.310;8.134;2022-12-04T14:36:34;3.80;99.90
3300;DHT22;1662;49.310;8.134;2022-12-04T14:39:06;3.80;99.90
3300;DHT22;1662;49.310;8.134;2022-12-04T14:41:32;3.80;99.90
3300;DHT22;1662;49.310;8.134;2022-12-04T14:43:59;3.70;99.90
3300;DHT22;1662;49.310;8.134;2022-12-04T14:52:35;3.80;99.90
3300;DHT22;1662;49.310;8.134;2022-12-04T15:00:49;3.80;99.90
3300;DHT22;1662;49.310;8.134;2022-12-04T15:03:15;3.70;99.90
3300;DHT22;1662;49.310;8.134;2022-12-04T15:08:20;3.80;99.90
3300;DHT22;1662;49.310;8.134;2022-12-04T15:10:51;3.80;99.90
3300;DHT22;1662;49.310;8.134;2022-12-04T15:13:37;3.80;99.90
3300;DHT22;1662;49.310;8.134;2022-12-04T15:19:01;3.90;99.90
3300;DHT22;1662;49.310;8.134;2022-12-04T15:21:39;3.80;99.90
3300;DHT22;1662;49.310;8.134;2022-12-04T15:24:14;3.80;99.90
3300;DHT22;1662;49.310;8.134;2022-12-04T15:29:20;3.80;99.90
3300;DHT22;1662;49.310;8.134;2022-12-04T15:31:50;3.70;99.90
3300;DHT22;1662;49.310;8.134;2022-12-04T15:34:25;3.80;99.90
3300;DHT22;1662;49.310;8.134;2022-12-04T15:37:02;3.70;99.90
3300;DHT22;1662;49.310;8.134;2022-12-04T15:39:32;3.70;99.90
3300;DHT22;1662;49.310;8.134;2022-12-04T15:42:14;3.70;99.90
3300;DHT22;1662;49.310;8.134;2022-12-04T15:47:22;3.60;99.90
3300;DHT22;1662;49.310;8.134;2022-12-04T15:49:51;3.60;99.90
3300;DHT22;1662;49.310;8.134;2022-12-04T15:52:22;3.60;99.90
3300;DHT22;1662;49.310;8.134;2022-12-04T15:54:58;3.60;99.90
3300;DHT22;1662;49.310;8.134;2022-12-04T15:59:56;3.80;99.90
3300;DHT22;1662;49.310;8.134;2022-12-04T16:02:30;3.80;99.90
3300;DHT22;1662;49.310;8.134;2022-12-04T16:07:25;3.80;99.90
3300;DHT22;1662;49.310;8.134;2022-12-04T16:09:57;3.70;99.90
3300;DHT22;1662;49.310;8.134;2022-12-04T16:12:25;3.70;99.90
3300;DHT22;1662;49.310;8.134;2022-12-04T16:14:53;3.70;99.90
3300;DHT22;1662;49.310;8.134;2022-12-04T16:17:20;3.70;99.90
3300;DHT22;1662;49.310;8.134;2022-12-04T16:19:46;3.70;99.90
3300;DHT22;1662;49.310;8.134;2022-12-04T16:25:11;3.70;99.90
3300;DHT22;1662;49.310;8.134;2022-12-04T16:27:37;3.70;99.90
3300;DHT22;1662;49.310;8.134;2022-12-04T16:30:04;3.90;99.90
3300;DHT22;1662;49.310;8.134;2022-12-04T16:32:32;3.90;99.90
3300;DHT22;1662;49.310;8.134;2022-12-04T16:34:59;3.80;99.90
3300;DHT22;1662;49.310;8.134;2022-12-04T16:37:26;3.80;99.90
3300;DHT22;1662;49.310;8.134;2022-12-04T16:39:51;3.80;99.90
3300;DHT22;1662;49.310;8.134;2022-12-04T16:45:31;3.80;99.90
3300;DHT22;1662;49.310;8.134;2022-12-04T16:47:57;3.70;99.90
3300;DHT22;1662;49.310;8.134;2022-12-04T16:50:23;3.70;99.90
3300;DHT22;1662;49.310;8.134;2022-12-04T16:52:49;3.70;99.90
3300;DHT22;1662;49.310;8.134;2022-12-04T16:55:19;3.70;99.90
3300;DHT22;1662;49.310;8.134;2022-12-04T16:57:46;3.70;99.90
3300;DHT22;1662;49.310;8.134;2022-12-04T17:00:13;3.70;99.90
3300;DHT22;1662;49.310;8.134;2022-12-04T17:05:23;3.60;99.90
3300;DHT22;1662;49.310;8.134;2022-12-04T17:07:48;3.60;99.90
3300;DHT22;1662;49.310;8.134;2022-12-04T17:10:15;3.60;99.90
3300;DHT22;1662;49.310;8.134;2022-12-04T17:12:41;3.90;99.90
3300;DHT22;1662;49.310;8.134;2022-12-04T17:15:08;4.00;99.90
3300;DHT22;1662;49.310;8.134;2022-12-04T17:17:37;3.90;99.90
3300;DHT22;1662;49.310;8.134;2022-12-04T17:20:10;3.90;99.90
3300;DHT22;1662;49.310;8.134;2022-12-04T17:23:19;3.90;99.90
3300;DHT22;1662;49.310;8.134;2022-12-04T17:25:44;4.00;99.90
3300;DHT22;1662;49.310;8.134;2022-12-04T17:28:10;3.80;99.90
3300;DHT22;1662;49.310;8.134;2022-12-04T17:30:36;3.80;99.90
3300;DHT22;1662;49.310;8.134;2022-12-04T17:33:02;3.80;99.90
3300;DHT22;1662;49.310;8.134;2022-12-04T17:35:28;3.80;99.90
3300;DHT22;1662;49.310;8.134;2022-12-04T17:37:53;3.70;99.90
3300;DHT22;1662;49.310;8.134;2022-12-04T17:42:53;3.70;99.90
3300;DHT22;1662;49.310;8.134;2022-12-04T17:45:19;3.90;99.90
3300;DHT22;1662;49.310;8.134;2022-12-04T17:47:44;3.80;99.90
3300;DHT22;1662;49.310;8.134;2022-12-04T17:50:10;3.80;99.90
3300;DHT22;1662;49.310;8.134;2022-12-04T17:52:36;3.70;99.90
3300;DHT22;1662;49.310;8.134;2022-12-04T17:55:01;3.70;99.90
3300;DHT22;1662;49.310;8.134;2022-12-04T17:57:27;3.70;99.90
3300;DHT22;1662;49.310;8.134;2022-12-04T18:02:25;3.70;99.90
3300;DHT22;1662;49.310;8.134;2022-12-04T18:04:53;3.70;99.90
3300;DHT22;1662;49.310;8.134;2022-12-04T18:07:22;3.70;99.90
3300;DHT22;1662;49.310;8.134;2022-12-04T18:09:47;3.70;99.90
3300;DHT22;1662;49.310;8.134;2022-12-04T18:12:13;3.60;99.90
3300;DHT22;1662;49.310;8.134;2022-12-04T18:14:39;3.70;99.90
3300;DHT22;1662;49.310;8.134;2022-12-04T18:17:04;3.70;99.90
3300;DHT22;1662;49.310;8.134;2022-12-04T18:20:24;3.80;99.90
3300;DHT22;1662;49.310;8.134;2022-12-04T18:22:50;3.70;99.90
3300;DHT22;1662;49.310;8.134;2022-12-04T18:25:16;3.70;99.90
3300;DHT22;1662;49.310;8.134;2022-12-04T18:27:44;3.80;99.90
3300;DHT22;1662;49.310;8.134;2022-12-04T18:30:09;3.70;99.90
3300;DHT22;1662;49.310;8.134;2022-12-04T18:32:36;3.80;99.90
3300;DHT22;1662;49.310;8.134;2022-12-04T18:35:01;3.70;99.90
3300;DHT22;1662;49.310;8.134;2022-12-04T18:37:27;3.80;99.90
3300;DHT22;1662;49.310;8.134;2022-12-04T18:42:22;3.80;99.90
3300;DHT22;1662;49.310;8.134;2022-12-04T18:44:47;3.70;99.90
3300;DHT22;1662;49.310;8.134;2022-12-04T18:47:16;3.70;99.90
3300;DHT22;1662;49.310;8.134;2022-12-04T18:49:41;3.70;99.90
3300;DHT22;1662;49.310;8.134;2022-12-04T18:52:07;3.70;99.90
3300;DHT22;1662;49.310;8.134;2022-12-04T18:54:33;3.70;99.90
3300;DHT22;1662;49.310;8.134;2022-12-04T18:56:58;3.70;99.90
3300;DHT22;1662;49.310;8.134;2022-12-04T19:02:03;3.70;99.90
3300;DHT22;1662;49.310;8.134;2022-12-04T19:04:32;3.70;99.90
3300;DHT22;1662;49.310;8.134;2022-12-04T19:06:58;3.60;99.90
3300;DHT22;1662;49.310;8.134;2022-12-04T19:09:26;3.60;99.90
3300;DHT22;1662;49.310;8.134;2022-12-04T19:11:52;3.60;99.90
3300;DHT22;1662;49.310;8.134;2022-12-04T19:14:19;3.70;99.90
3300;DHT22;1662;49.310;8.134;2022-12-04T19:16:45;3.70;99.90
3300;DHT22;1662;49.310;8.134;2022-12-04T19:19:12;3.70;99.90
3300;DHT22;1662;49.310;8.134;2022-12-04T19:23:01;3.60;99.90
3300;DHT22;1662;49.310;8.134;2022-12-04T19:25:27;3.60;99.90
3300;DHT22;1662;49.310;8.134;2022-12-04T19:27:53;3.60;99.90
3300;DHT22;1662;49.310;8.134;2022-12-04T19:30:21;3.70;99.90
3300;DHT22;1662;49.310;8.134;2022-12-04T19:32:47;3.70;99.90
3300;DHT22;1662;49.310;8.134;2022-12-04T19:35:12;3.80;99.90
3300;DHT22;1662;49.310;8.134;2022-12-04T19:37:40;3.80;99.90
3300;DHT22;1662;49.310;8.134;2022-12-04T19:40:06;3.80;99.90
3300;DHT22;1662;49.310;8.134;2022-12-04T19:43:46;3.70;99.90
3300;DHT22;1662;49.310;8.134;2022-12-04T19:46:14;3.70;99.90
3300;DHT22;1662;49.310;8.134;2022-12-04T19:48:40;3.70;99.90
3300;DHT22;1662;49.310;8.134;2022-12-04T19:51:10;3.70;99.90
3300;DHT22;1662;49.310;8.134;2022-12-04T19:53:37;3.70;99.90
3300;DHT22;1662;49.310;8.134;2022-12-04T19:56:10;3.70;99.90
3300;DHT22;1662;49.310;8.134;2022-12-04T19:58:36;3.70;99.90
3300;DHT22;1662;49.310;8.134;2022-12-04T20:03:34;3.70;99.90
3300;DHT22;1662;49.310;8.134;2022-12-04T20:06:04;3.60;99.90
3300;DHT22;1662;49.310;8.134;2022-12-04T20:08:33;3.70;99.90
3300;DHT22;1662;49.310;8.134;2022-12-04T20:11:04;3.70;99.90
3300;DHT22;1662;49.310;8.134;2022-12-04T20:13:30;3.70;99.90
3300;DHT22;1662;49.310;8.134;2022-12-04T20:16:00;3.70;99.90
3300;DHT22;1662;49.310;8.134;2022-12-04T20:18:28;3.70;99.90
3300;DHT22;1662;49.310;8.134;2022-12-04T20:23:01;3.70;99.90
3300;DHT22;1662;49.310;8.134;2022-12-04T20:25:27;3.70;99.90
3300;DHT22;1662;49.310;8.134;2022-12-04T20:27:54;3.70;99.90
3300;DHT22;1662;49.310;8.134;2022-12-04T20:30:20;3.70;99.90
3300;DHT22;1662;49.310;8.134;2022-12-04T20:32:48;3.70;99.90
3300;DHT22;1662;49.310;8.134;2022-12-04T20:35:13;3.60;99.90